Time;durP1;ratioP1;P1;durP2;ratioP2;P2;SDS_P1;SDS_P2;PMS_P1;PMS_P2;Temp;Humidity;BMP_temperature;BMP_pressure;BME280_temperature;BME280_humidity;BME280_pressure;Samples;Min_cycle;Max_cycle;Signal;HPM_P1;HPM_P2
2022/02/11 00:00:04;;;;;;;9.47;6.43;;;6.90;88.20;;;;;;5025798;28;20309;-88
2022/02/11 00:02:19;;;;;;;6.90;6.20;;;6.90;88.70;;;;;;5027651;28;20209;-88
2022/02/11 00:07:28;;;;;;;7.77;7.00;;;6.90;88.20;;;;;;5029813;28;20203;-89
2022/02/11 00:09:54;;;;;;;7.70;6.30;;;6.90;88.00;;;;;;5025779;28;20237;-89
2022/02/11 00:12:21;;;;;;;7.60;6.77;;;6.80;88.40;;;;;;5031409;28;20222;-89
2022/02/11 00:15:32;;;;;;;8.50;6.47;;;6.70;88.50;;;;;;5026633;28;20181;-89
2022/02/11 00:17:49;;;;;;;12.00;6.27;;;6.80;88.10;;;;;;5049450;28;20190;-89
2022/02/11 00:20:15;;;;;;;8.27;6.63;;;6.70;86.80;;;;;;5032392;28;20303;-89
2022/02/11 00:22:41;;;;;;;8.37;6.63;;;6.70;83.50;;;;;;5031856;28;20618;-90
2022/02/11 00:25:07;;;;;;;7.90;6.37;;;6.70;83.00;;;;;;5033941;28;20193;-89
2022/02/11 00:32:55;;;;;;;7.63;5.80;;;6.80;82.00;;;;;;5019013;28;20196;-90
2022/02/11 00:37:54;;;;;;;7.27;5.80;;;6.80;81.40;;;;;;5022097;28;20189;-89
2022/02/11 01:04:13;;;;;;;6.30;5.70;;;6.70;84.30;;;;;;5030004;28;20204;-90
2022/02/11 01:06:40;;;;;;;6.53;5.83;;;6.60;85.10;;;;;;5025969;28;20245;-89
2022/02/11 01:09:07;;;;;;;7.17;5.67;;;6.60;85.20;;;;;;5023646;28;20189;-88
2022/02/11 01:11:43;;;;;;;6.80;5.50;;;6.60;85.30;;;;;;5019121;28;20229;-89
2022/02/11 01:14:09;;;;;;;6.30;5.30;;;6.70;85.00;;;;;;5026665;28;20257;-89
2022/02/11 01:19:14;;;;;;;7.57;6.00;;;6.70;86.00;;;;;;5025079;28;20192;-89
2022/02/11 01:21:51;;;;;;;6.73;4.90;;;6.70;86.20;;;;;;5041896;28;20227;-88
2022/02/11 01:29:45;;;;;;;8.97;6.17;;;6.60;88.60;;;;;;5046460;28;20223;-88
2022/02/11 01:32:24;;;;;;;6.43;5.70;;;6.60;89.60;;;;;;5038193;28;20656;-89
2022/02/11 01:37:32;;;;;;;8.63;6.13;;;6.50;95.10;;;;;;5027280;28;20197;-90
2022/02/11 01:40:45;;;;;;;7.53;6.77;;;6.50;96.60;;;;;;5022148;28;20190;-91
2022/02/11 01:53:48;;;;;;;9.57;7.30;;;6.20;99.90;;;;;;5033187;28;20757;-92
2022/02/11 02:11:38;;;;;;;8.77;6.90;;;6.00;99.90;;;;;;5039250;28;20251;-93
2022/02/11 02:20:24;;;;;;;8.63;7.23;;;6.00;99.90;;;;;;5034904;28;20281;-93
2022/02/11 02:28:02;;;;;;;10.10;8.20;;;5.90;99.90;;;;;;5028861;28;20254;-93
2022/02/11 02:31:42;;;;;;;8.63;7.13;;;5.90;99.90;;;;;;5038264;28;20227;-92
2022/02/11 02:57:23;;;;;;;5.83;5.20;;;5.90;99.90;;;;;;5030411;28;20269;-92
2022/02/11 03:00:08;;;;;;;4.73;4.20;;;5.90;99.90;;;;;;5060940;28;20662;-92
2022/02/11 03:48:36;;;;;;;3.53;3.23;;;5.90;99.90;;;;;;5036692;28;20210;-93
2022/02/11 04:22:26;;;;;;;1.30;1.30;;;5.70;99.50;;;;;;5059776;28;20278;-94
2022/02/11 04:55:02;;;;;;;1.40;1.30;;;5.60;98.00;;;;;;5038841;28;20227;-94
2022/02/11 05:00:14;;;;;;;1.40;1.37;;;5.50;99.10;;;;;;5037557;28;20204;-92
2022/02/11 05:02:58;;;;;;;1.80;1.70;;;5.50;99.90;;;;;;5030255;28;20188;-93
2022/02/11 05:05:49;;;;;;;1.93;1.50;;;5.40;99.80;;;;;;5033406;28;20246;-93
2022/02/11 05:08:23;;;;;;;2.10;1.50;;;5.40;99.80;;;;;;5034722;28;20177;-93
2022/02/11 05:10:50;;;;;;;1.30;1.30;;;5.30;99.90;;;;;;5025645;28;20220;-94
2022/02/11 05:13:17;;;;;;;1.53;1.43;;;5.20;99.90;;;;;;5033062;28;20879;-93
2022/02/11 05:15:45;;;;;;;1.40;1.30;;;5.10;99.90;;;;;;5037623;28;20168;-94
2022/02/11 05:18:11;;;;;;;1.90;1.50;;;5.10;99.90;;;;;;5044961;28;20221;-95
2022/02/11 05:20:37;;;;;;;1.40;1.30;;;5.20;99.90;;;;;;5035536;28;20236;-93
2022/02/11 05:23:07;;;;;;;1.43;1.33;;;5.10;99.90;;;;;;5035623;28;20189;-93
2022/02/11 05:25:33;;;;;;;1.07;1.07;;;5.00;99.90;;;;;;5019829;28;20569;-94
2022/02/11 05:28:00;;;;;;;1.47;1.37;;;4.90;99.90;;;;;;5032488;28;20189;-92
2022/02/11 05:30:33;;;;;;;1.40;1.30;;;4.80;99.90;;;;;;5042290;28;20239;-93
2022/02/11 05:33:04;;;;;;;1.70;1.60;;;4.70;99.90;;;;;;5037733;28;20621;-92
2022/02/11 05:35:30;;;;;;;1.63;1.53;;;4.60;99.90;;;;;;5041305;28;20191;-93
2022/02/11 05:37:56;;;;;;;2.40;1.40;;;4.50;99.90;;;;;;5039213;28;20181;-92
2022/02/11 05:40:25;;;;;;;1.50;1.40;;;4.40;99.90;;;;;;5032317;28;20248;-92
2022/02/11 05:42:51;;;;;;;2.03;1.70;;;4.30;99.90;;;;;;5069495;28;20301;-92
2022/02/11 05:45:17;;;;;;;2.63;1.67;;;4.20;99.90;;;;;;5039966;28;20307;-93
2022/02/11 05:47:43;;;;;;;1.60;1.50;;;4.30;99.90;;;;;;5052906;28;20209;-91
2022/02/11 05:50:10;;;;;;;2.17;1.90;;;4.30;99.90;;;;;;5054681;28;20243;-90
2022/02/11 05:52:36;;;;;;;2.83;1.80;;;4.20;99.90;;;;;;5039295;28;20181;-90
2022/02/11 05:55:03;;;;;;;1.90;1.70;;;4.20;99.90;;;;;;5030731;28;20847;-91
2022/02/11 05:57:29;;;;;;;2.20;2.00;;;4.20;99.90;;;;;;5042019;28;20228;-91
2022/02/11 05:59:55;;;;;;;2.17;1.97;;;4.10;99.90;;;;;;5043408;28;20197;-91
2022/02/11 06:02:21;;;;;;;2.67;2.10;;;4.10;99.90;;;;;;5051219;28;20219;-91
2022/02/11 06:04:47;;;;;;;2.73;2.10;;;4.10;99.90;;;;;;5038142;28;20210;-91
2022/02/11 06:07:14;;;;;;;3.57;2.80;;;4.10;99.90;;;;;;5037099;28;20303;-91
2022/02/11 06:09:40;;;;;;;3.00;2.70;;;4.10;99.90;;;;;;5031895;28;20350;-93
2022/02/11 06:12:07;;;;;;;3.60;2.90;;;4.00;99.90;;;;;;5036528;28;20300;-92
2022/02/11 06:14:38;;;;;;;4.57;2.90;;;4.00;99.90;;;;;;5035822;28;20199;-91
2022/02/11 06:17:07;;;;;;;3.40;2.83;;;4.00;99.90;;;;;;5036375;28;20215;-91
2022/02/11 06:19:33;;;;;;;2.70;2.50;;;3.90;99.90;;;;;;5035166;28;20196;-92
2022/02/11 06:21:59;;;;;;;4.07;2.50;;;4.00;99.90;;;;;;5028675;28;20233;-91
2022/02/11 06:24:24;;;;;;;2.60;2.40;;;3.90;99.90;;;;;;5066278;28;20268;-91
2022/02/11 06:26:50;;;;;;;4.23;2.97;;;3.80;99.80;;;;;;5030529;28;20203;-92
2022/02/11 06:29:16;;;;;;;3.40;2.63;;;3.80;99.90;;;;;;5036502;28;20209;-89
2022/02/11 06:31:42;;;;;;;5.17;3.17;;;3.70;99.90;;;;;;5034126;28;20689;-90
2022/02/11 06:34:08;;;;;;;4.67;2.83;;;3.70;99.90;;;;;;5022244;28;20215;-92
2022/02/11 06:36:34;;;;;;;3.37;2.83;;;3.70;99.90;;;;;;5032451;28;20208;-91
2022/02/11 06:39:03;;;;;;;4.17;2.70;;;3.60;99.90;;;;;;5032559;28;20859;-92
2022/02/11 06:41:29;;;;;;;3.87;3.00;;;3.40;99.90;;;;;;5024535;28;20213;-92
2022/02/11 06:43:55;;;;;;;3.50;2.50;;;3.40;99.90;;;;;;5029750;28;20200;-92
2022/02/11 06:46:21;;;;;;;4.83;3.77;;;3.30;99.90;;;;;;5031328;28;20193;-90
2022/02/11 06:48:48;;;;;;;6.00;4.03;;;3.40;99.90;;;;;;5027382;28;20257;-93
2022/02/11 06:51:14;;;;;;;8.10;5.07;;;3.40;99.90;;;;;;5024452;28;20228;-91
2022/02/11 06:53:41;;;;;;;6.83;4.77;;;3.20;99.90;;;;;;5020735;28;20182;-91
2022/02/11 06:56:07;;;;;;;8.00;5.47;;;3.20;99.90;;;;;;5035483;28;20215;-91
2022/02/11 06:58:33;;;;;;;8.03;5.20;;;3.20;99.90;;;;;;5035726;28;20259;-90
2022/02/11 07:00:59;;;;;;;6.13;4.33;;;3.20;99.90;;;;;;5023293;28;20217;-90
2022/02/11 07:03:25;;;;;;;7.53;4.13;;;3.10;99.90;;;;;;5024876;28;20611;-91
2022/02/11 07:05:53;;;;;;;10.23;4.27;;;3.10;99.90;;;;;;5028918;28;20193;-91
2022/02/11 07:08:19;;;;;;;5.10;4.00;;;3.00;99.90;;;;;;5026977;28;20272;-91
2022/02/11 07:10:45;;;;;;;6.43;4.03;;;3.00;99.90;;;;;;5031131;28;20241;-91
2022/02/11 07:13:13;;;;;;;5.20;3.87;;;2.90;99.90;;;;;;5025913;28;20190;-91
2022/02/11 07:15:43;;;;;;;7.37;4.37;;;2.90;99.90;;;;;;5036181;28;20204;-90
2022/02/11 07:18:12;;;;;;;5.87;3.80;;;3.00;99.90;;;;;;5025717;28;20268;-92
2022/02/11 07:20:39;;;;;;;4.13;3.73;;;3.00;99.90;;;;;;5030332;28;20221;-92
2022/02/11 07:23:05;;;;;;;6.33;3.80;;;3.10;99.90;;;;;;5034616;28;20213;-92
2022/02/11 07:25:32;;;;;;;4.07;3.70;;;3.10;99.90;;;;;;5033027;28;20185;-92
2022/02/11 07:27:58;;;;;;;5.63;3.93;;;3.00;99.90;;;;;;5034156;28;20180;-91
2022/02/11 07:30:24;;;;;;;5.00;3.63;;;3.10;99.90;;;;;;5030988;28;20261;-91
2022/02/11 07:32:52;;;;;;;6.73;4.33;;;3.00;99.90;;;;;;5024223;28;20208;-91
2022/02/11 07:35:19;;;;;;;6.83;3.60;;;2.90;99.90;;;;;;5021907;28;20611;-91
2022/02/11 07:37:45;;;;;;;7.53;4.10;;;2.90;99.90;;;;;;5025348;28;20281;-91
2022/02/11 07:40:13;;;;;;;6.07;4.00;;;2.80;99.90;;;;;;5025021;28;20208;-92
2022/02/11 07:42:41;;;;;;;6.63;4.47;;;2.90;99.90;;;;;;5058178;28;20201;-93
2022/02/11 07:45:08;;;;;;;7.23;4.33;;;2.90;99.90;;;;;;5020077;28;20193;-91
2022/02/11 07:47:34;;;;;;;5.53;4.00;;;2.90;99.90;;;;;;5025818;28;20722;-91
2022/02/11 07:49:59;;;;;;;6.83;4.50;;;2.90;99.90;;;;;;5028515;28;20256;-93
2022/02/11 07:52:25;;;;;;;5.63;4.17;;;2.80;99.90;;;;;;5021730;28;20201;-91
2022/02/11 07:54:54;;;;;;;7.37;4.53;;;2.80;99.90;;;;;;5020349;28;20185;-93
2022/02/11 07:57:20;;;;;;;6.00;4.63;;;2.90;99.90;;;;;;5027369;28;20235;-91
2022/02/11 07:59:46;;;;;;;7.70;4.70;;;2.90;99.90;;;;;;5032603;28;20662;-91
2022/02/11 08:02:12;;;;;;;5.30;4.70;;;2.80;99.90;;;;;;5040441;28;20212;-91
2022/02/11 08:04:38;;;;;;;6.50;4.17;;;2.70;99.90;;;;;;5036863;28;20181;-91
2022/02/11 08:07:04;;;;;;;4.87;4.40;;;2.70;99.90;;;;;;5026003;28;20198;-89
2022/02/11 08:09:30;;;;;;;8.20;4.50;;;2.70;99.90;;;;;;5023583;28;20308;-89
2022/02/11 08:11:57;;;;;;;4.67;3.87;;;2.80;99.90;;;;;;5026786;28;20213;-92
2022/02/11 08:14:24;;;;;;;7.17;4.43;;;2.90;99.90;;;;;;5031631;28;20192;-90
2022/02/11 08:16:50;;;;;;;6.30;4.90;;;3.10;99.90;;;;;;5031688;28;20203;-90
2022/02/11 08:19:19;;;;;;;8.07;4.67;;;3.10;99.90;;;;;;5033793;28;20189;-91
2022/02/11 08:21:46;;;;;;;4.83;3.97;;;3.20;99.90;;;;;;5026319;28;20216;-90
2022/02/11 08:24:13;;;;;;;5.03;4.00;;;3.20;99.90;;;;;;5034585;28;20227;-90
2022/02/11 08:26:39;;;;;;;8.47;4.87;;;3.20;99.90;;;;;;5030702;28;20200;-89
2022/02/11 08:29:08;;;;;;;7.73;4.90;;;3.30;99.90;;;;;;5056838;28;20201;-91
2022/02/11 08:31:36;;;;;;;8.17;4.43;;;3.30;99.90;;;;;;5032478;28;20748;-91
2022/02/11 08:34:03;;;;;;;7.13;4.87;;;3.40;99.90;;;;;;5033972;28;20192;-90
2022/02/11 08:36:29;;;;;;;7.87;4.93;;;3.50;99.90;;;;;;5030848;28;20213;-91
2022/02/11 08:38:58;;;;;;;10.10;5.03;;;3.50;99.90;;;;;;5023564;28;20189;-90
2022/02/11 08:41:24;;;;;;;6.07;4.13;;;3.60;99.90;;;;;;5038486;28;20220;-90
2022/02/11 08:43:50;;;;;;;10.57;5.03;;;3.70;99.40;;;;;;5034150;28;20196;-91
2022/02/11 08:46:16;;;;;;;7.10;4.70;;;3.70;97.40;;;;;;5037717;28;20189;-90
2022/02/11 08:48:42;;;;;;;8.63;5.27;;;3.70;98.20;;;;;;5038578;28;20220;-91
2022/02/11 08:51:08;;;;;;;7.17;4.70;;;3.90;97.50;;;;;;5034805;28;20212;-93
2022/02/11 08:53:35;;;;;;;10.17;4.37;;;3.90;96.60;;;;;;5025430;28;20181;-93
2022/02/11 08:56:06;;;;;;;7.53;4.73;;;3.90;95.40;;;;;;5024850;28;20220;-93
2022/02/11 08:58:32;;;;;;;7.20;5.33;;;4.10;96.40;;;;;;5020455;28;20209;-91
2022/02/11 09:00:58;;;;;;;6.40;4.03;;;4.10;95.70;;;;;;5024474;28;20711;-91
2022/02/11 09:03:28;;;;;;;9.50;5.33;;;4.20;95.90;;;;;;5033960;28;20211;-92
2022/02/11 09:05:54;;;;;;;9.63;5.50;;;4.10;96.50;;;;;;5035214;28;20180;-91
2022/02/11 09:08:19;;;;;;;8.67;5.20;;;4.10;96.70;;;;;;5033738;28;20688;-91
2022/02/11 09:10:47;;;;;;;8.63;5.23;;;4.10;96.60;;;;;;5029384;28;20742;-93
2022/02/11 09:13:14;;;;;;;8.20;4.67;;;4.20;95.40;;;;;;5036870;28;20195;-92
2022/02/11 09:15:40;;;;;;;7.63;4.63;;;4.30;94.40;;;;;;5026642;28;20178;-91
2022/02/11 09:18:06;;;;;;;7.93;5.10;;;4.30;93.90;;;;;;5025313;28;20223;-92
2022/02/11 09:20:31;;;;;;;7.37;4.50;;;4.40;95.20;;;;;;5036360;28;20209;-92
2022/02/11 09:22:57;;;;;;;9.67;5.60;;;4.50;93.20;;;;;;5024658;28;20197;-91
2022/02/11 09:25:23;;;;;;;8.77;5.10;;;4.70;93.10;;;;;;5060629;28;20228;-91
2022/02/11 09:27:49;;;;;;;8.70;5.13;;;4.80;95.60;;;;;;5032434;28;20193;-91
2022/02/11 09:30:20;;;;;;;8.50;5.23;;;4.80;93.20;;;;;;5040258;28;20716;-92
2022/02/11 09:32:48;;;;;;;7.70;5.73;;;5.00;92.40;;;;;;5031948;28;20188;-92
2022/02/11 09:35:16;;;;;;;9.00;5.40;;;5.00;91.90;;;;;;5029801;28;21072;-91
2022/02/11 09:37:42;;;;;;;9.93;4.97;;;5.00;92.10;;;;;;5050576;28;20184;-94
2022/02/11 09:40:15;;;;;;;8.03;5.20;;;5.10;93.20;;;;;;5047431;28;20196;-93
2022/02/11 09:42:41;;;;;;;9.10;6.33;;;5.00;92.00;;;;;;5030923;28;20197;-92
2022/02/11 09:45:09;;;;;;;9.57;6.60;;;4.90;91.50;;;;;;5039481;28;20263;-91
2022/02/11 09:47:36;;;;;;;7.63;5.57;;;4.90;93.30;;;;;;5045520;28;20292;-92
2022/02/11 09:50:03;;;;;;;8.83;5.37;;;4.90;92.70;;;;;;5030652;28;20197;-91
2022/02/11 09:52:39;;;;;;;8.33;5.53;;;4.90;92.50;;;;;;5033311;28;20268;-92
2022/02/11 09:58:14;;;;;;;8.10;5.87;;;5.30;90.70;;;;;;5026521;28;20269;-91
2022/02/11 10:00:44;;;;;;;8.43;6.20;;;5.20;91.90;;;;;;5030878;28;20371;-90
2022/02/11 10:03:30;;;;;;;8.50;5.63;;;5.30;91.20;;;;;;5046399;28;20401;-92
2022/02/11 10:06:04;;;;;;;10.93;5.90;;;5.20;92.80;;;;;;5023022;28;22218;-91
2022/02/11 10:08:35;;;;;;;10.53;5.80;;;5.40;91.40;;;;;;5027522;28;20191;-93
2022/02/11 10:11:03;;;;;;;8.90;5.97;;;5.40;93.10;;;;;;5032795;28;20222;-92
2022/02/11 10:13:39;;;;;;;8.70;6.10;;;5.10;92.30;;;;;;5014178;28;20265;-92
2022/02/11 10:16:11;;;;;;;7.60;5.90;;;5.10;94.10;;;;;;5026519;28;20197;-91
2022/02/11 10:18:42;;;;;;;9.80;5.67;;;5.30;93.70;;;;;;5032432;28;20185;-91
2022/02/11 10:21:15;;;;;;;12.03;6.43;;;5.00;92.60;;;;;;5031787;28;20596;-91
2022/02/11 10:23:43;;;;;;;7.47;5.33;;;5.10;93.20;;;;;;5034112;28;20790;-91
2022/02/11 10:26:13;;;;;;;10.43;6.00;;;5.10;93.70;;;;;;5024149;28;20200;-92
2022/02/11 10:28:43;;;;;;;9.13;5.77;;;5.00;93.30;;;;;;5030516;28;20228;-90
2022/02/11 10:31:23;;;;;;;9.63;5.90;;;4.90;92.70;;;;;;5030793;28;20216;-91
2022/02/11 10:34:15;;;;;;;9.83;5.87;;;4.80;93.90;;;;;;5026365;28;20224;-90
2022/02/11 10:36:43;;;;;;;8.23;5.57;;;4.80;94.40;;;;;;5046073;28;20268;-90
2022/02/11 10:39:14;;;;;;;8.87;4.97;;;4.90;93.80;;;;;;5033758;28;20182;-91
2022/02/11 10:41:56;;;;;;;9.93;5.93;;;5.10;92.70;;;;;;5023336;28;20213;-90
2022/02/11 10:44:29;;;;;;;10.33;5.73;;;5.20;93.40;;;;;;5031420;28;20220;-91
2022/02/11 10:47:03;;;;;;;10.60;5.23;;;5.10;92.30;;;;;;5057749;28;20193;-91
2022/02/11 10:49:40;;;;;;;7.57;4.63;;;5.00;91.30;;;;;;5029618;28;20192;-90
2022/02/11 10:52:18;;;;;;;9.67;4.60;;;4.90;92.40;;;;;;5036679;28;20200;-90
2022/02/11 10:54:52;;;;;;;10.13;4.80;;;5.00;92.20;;;;;;5031079;28;20196;-91
2022/02/11 10:57:31;;;;;;;8.13;4.33;;;5.00;92.50;;;;;;5026730;28;20645;-92
2022/02/11 10:59:58;;;;;;;6.43;4.43;;;5.20;91.70;;;;;;5056957;28;20188;-90
2022/02/11 11:02:24;;;;;;;6.47;4.73;;;5.20;90.60;;;;;;5031903;28;20236;-91
2022/02/11 11:04:52;;;;;;;7.60;4.77;;;5.20;90.10;;;;;;5030762;28;20208;-90
2022/02/11 11:07:21;;;;;;;8.07;4.97;;;5.10;90.60;;;;;;5037468;28;20189;-90
2022/02/11 11:09:48;;;;;;;7.10;4.63;;;5.10;89.80;;;;;;5039907;28;20288;-91
2022/02/11 11:12:18;;;;;;;8.17;4.93;;;5.20;91.30;;;;;;5038112;28;20642;-90
2022/02/11 11:14:49;;;;;;;7.90;5.53;;;5.20;92.80;;;;;;5035659;28;20196;-90
2022/02/11 11:17:18;;;;;;;7.13;4.83;;;5.20;92.50;;;;;;5018472;28;20201;-92
2022/02/11 11:19:44;;;;;;;8.83;5.00;;;5.10;90.90;;;;;;5038500;28;20212;-90
2022/02/11 11:22:11;;;;;;;7.53;5.00;;;5.00;91.00;;;;;;5036988;28;20206;-91
2022/02/11 11:24:42;;;;;;;4.93;4.43;;;4.80;91.30;;;;;;5037115;28;20196;-90
2022/02/11 11:27:08;;;;;;;8.97;5.57;;;4.90;90.10;;;;;;5038107;28;20189;-90
2022/02/11 11:29:33;;;;;;;9.60;4.90;;;4.80;90.50;;;;;;5035399;28;20239;-90
2022/02/11 11:32:02;;;;;;;10.70;5.93;;;4.70;91.30;;;;;;5037800;28;20217;-90
2022/02/11 11:34:30;;;;;;;7.50;5.33;;;4.70;92.50;;;;;;5041654;28;20201;-91
2022/02/11 11:37:04;;;;;;;8.43;4.93;;;4.70;92.50;;;;;;5045004;28;20196;-90
2022/02/11 11:39:30;;;;;;;9.30;5.03;;;4.80;92.30;;;;;;5038343;28;20195;-91
2022/02/11 11:42:06;;;;;;;8.23;6.07;;;4.90;92.80;;;;;;5039222;28;20213;-91
2022/02/11 11:44:52;;;;;;;6.80;4.93;;;5.00;90.90;;;;;;5032752;28;20192;-90
2022/02/11 11:47:27;;;;;;;8.17;5.03;;;5.10;91.70;;;;;;5035936;28;20193;-89
2022/02/11 11:49:54;;;;;;;9.30;4.90;;;5.20;90.70;;;;;;5040696;28;20291;-89
2022/02/11 11:52:20;;;;;;;6.83;4.50;;;5.20;90.20;;;;;;5039089;28;20197;-90
2022/02/11 11:54:47;;;;;;;9.60;5.23;;;5.10;90.70;;;;;;5036118;28;20193;-90
2022/02/11 11:57:17;;;;;;;8.17;5.07;;;5.10;91.00;;;;;;5038086;28;20192;-90
2022/02/11 11:59:50;;;;;;;9.10;4.93;;;5.20;89.10;;;;;;5035538;28;20193;-89
2022/02/11 12:02:26;;;;;;;6.77;4.30;;;5.10;90.50;;;;;;5033934;28;20263;-89
2022/02/11 12:04:54;;;;;;;6.93;4.97;;;5.00;90.40;;;;;;5036506;28;20198;-90
2022/02/11 12:07:34;;;;;;;6.10;4.27;;;5.00;91.00;;;;;;5035940;28;20201;-89
2022/02/11 12:10:03;;;;;;;10.40;5.40;;;5.00;90.80;;;;;;5037089;28;20216;-89
2022/02/11 12:12:30;;;;;;;5.47;4.80;;;4.90;91.70;;;;;;5039362;28;20259;-90
2022/02/11 12:15:05;;;;;;;7.20;5.20;;;4.90;91.50;;;;;;5037110;28;20603;-90
2022/02/11 12:17:31;;;;;;;7.67;5.07;;;4.90;90.80;;;;;;5038515;28;20203;-89
2022/02/11 12:19:58;;;;;;;8.83;5.37;;;5.00;90.60;;;;;;5039971;28;20255;-90
2022/02/11 12:22:27;;;;;;;8.27;4.53;;;5.10;91.20;;;;;;5043420;28;20284;-90
2022/02/11 12:27:50;;;;;;;6.90;4.60;;;5.10;90.30;;;;;;5041861;28;20260;-89
2022/02/11 12:30:25;;;;;;;8.03;4.50;;;5.20;90.60;;;;;;5026073;28;20209;-89
2022/02/11 12:32:59;;;;;;;5.53;4.33;;;5.20;89.80;;;;;;5040735;28;20263;-91
2022/02/11 12:35:30;;;;;;;8.47;4.43;;;5.20;89.40;;;;;;5035751;28;20174;-90
2022/02/11 12:38:00;;;;;;;6.07;4.33;;;5.20;89.60;;;;;;5037971;28;20184;-89
2022/02/11 12:40:35;;;;;;;7.67;4.23;;;5.20;89.70;;;;;;5041277;28;20232;-89
2022/02/11 12:43:04;;;;;;;6.33;4.37;;;5.10;90.60;;;;;;5037632;28;20192;-90
2022/02/11 12:45:36;;;;;;;9.17;4.23;;;5.20;90.30;;;;;;5035744;28;20267;-89
2022/02/11 12:48:05;;;;;;;6.57;4.37;;;5.30;89.40;;;;;;5037652;28;20211;-89
2022/02/11 12:50:36;;;;;;;6.80;4.67;;;5.30;89.50;;;;;;5038690;28;20243;-90
2022/02/11 12:53:07;;;;;;;4.63;4.20;;;5.80;88.70;;;;;;5039758;28;20196;-90
2022/02/11 12:55:36;;;;;;;6.47;4.63;;;5.80;89.00;;;;;;5037532;28;20211;-89
2022/02/11 12:58:11;;;;;;;9.37;4.73;;;5.80;87.80;;;;;;5036274;28;20239;-90
2022/02/11 13:00:39;;;;;;;8.97;4.33;;;6.20;87.00;;;;;;5038450;28;20216;-90
2022/02/11 13:03:06;;;;;;;5.47;4.50;;;6.90;82.80;;;;;;5035924;28;20189;-89
2022/02/11 13:05:39;;;;;;;10.50;4.60;;;7.10;81.20;;;;;;5036328;28;20205;-88
2022/02/11 13:08:08;;;;;;;5.97;4.00;;;6.90;79.60;;;;;;5037290;28;20303;-88
2022/02/11 13:10:38;;;;;;;6.37;4.50;;;7.20;80.00;;;;;;5035684;28;20216;-89
2022/02/11 13:13:14;;;;;;;6.37;4.00;;;7.80;76.10;;;;;;5039173;28;20177;-89
2022/02/11 13:15:41;;;;;;;5.73;4.10;;;8.20;76.10;;;;;;5036457;28;20189;-89
2022/02/11 13:18:16;;;;;;;5.67;3.53;;;8.40;74.10;;;;;;5036571;28;20200;-88
2022/02/11 13:21:04;;;;;;;8.77;3.90;;;8.30;70.30;;;;;;5037223;28;20210;-88
2022/02/11 13:23:31;;;;;;;10.90;3.90;;;8.00;71.70;;;;;;5038847;28;20250;-88
2022/02/11 13:25:58;;;;;;;7.23;3.40;;;7.40;71.80;;;;;;5036860;28;20232;-88
2022/02/11 13:28:27;;;;;;;6.37;3.80;;;7.00;74.50;;;;;;5039043;28;20197;-88
2022/02/11 13:31:01;;;;;;;6.83;3.77;;;6.80;74.50;;;;;;5036187;28;20577;-88
2022/02/11 13:33:29;;;;;;;10.83;4.00;;;6.80;76.70;;;;;;5019135;28;20610;-88
2022/02/11 13:35:58;;;;;;;8.03;3.90;;;6.70;78.20;;;;;;5036975;28;20208;-88
2022/02/11 13:38:26;;;;;;;4.77;3.63;;;6.70;79.00;;;;;;5036906;28;20212;-87
2022/02/11 13:41:12;;;;;;;5.03;3.90;;;7.30;73.90;;;;;;5034995;28;20205;-89
2022/02/11 13:43:57;;;;;;;7.23;4.20;;;7.30;75.60;;;;;;5042226;28;20165;-86
2022/02/11 13:46:32;;;;;;;4.53;3.47;;;6.90;75.30;;;;;;5042849;28;20193;-87
2022/02/11 13:49:16;;;;;;;6.20;4.00;;;6.90;74.50;;;;;;5036426;28;20558;-87
2022/02/11 13:51:43;;;;;;;6.07;3.67;;;7.00;76.60;;;;;;5039211;28;20219;-88
2022/02/11 13:54:09;;;;;;;7.90;4.27;;;6.80;76.30;;;;;;5038372;28;20192;-89
2022/02/11 13:56:37;;;;;;;6.23;3.90;;;6.90;75.70;;;;;;5037567;28;20228;-89
2022/02/11 13:59:03;;;;;;;8.90;4.20;;;6.90;76.60;;;;;;5036335;28;20192;-89
2022/02/11 14:01:41;;;;;;;6.33;3.80;;;7.00;75.40;;;;;;5037696;28;20276;-89
2022/02/11 14:04:09;;;;;;;5.47;3.60;;;6.80;76.50;;;;;;5037156;28;20247;-89
2022/02/11 14:06:45;;;;;;;5.57;3.30;;;7.00;75.90;;;;;;5040603;28;20236;-89
2022/02/11 14:09:45;;;;;;;5.63;3.13;;;7.60;69.80;;;;;;5037375;28;20613;-90
2022/02/11 14:12:14;;;;;;;5.13;3.63;;;7.50;70.00;;;;;;5035046;28;20336;-89
2022/02/11 14:15:05;;;;;;;3.60;3.20;;;7.60;70.10;;;;;;5032524;28;20189;-90
2022/02/11 14:17:33;;;;;;;3.80;3.40;;;7.80;68.90;;;;;;5054747;28;20194;-89
2022/02/11 14:19:58;;;;;;;9.00;3.43;;;8.50;66.70;;;;;;5033625;28;20212;-87
2022/02/11 14:22:24;;;;;;;4.53;3.30;;;9.10;62.30;;;;;;5032334;28;20212;-87
2022/02/11 14:24:50;;;;;;;5.70;3.30;;;9.20;62.20;;;;;;5056860;28;20256;-88
2022/02/11 14:27:16;;;;;;;4.30;3.07;;;9.10;62.20;;;;;;5031778;28;20228;-90
2022/02/11 14:29:42;;;;;;;5.37;3.10;;;8.70;60.70;;;;;;5034410;28;20224;-88
2022/02/11 14:32:08;;;;;;;3.97;2.63;;;8.50;61.30;;;;;;5038331;28;20299;-90
2022/02/11 14:34:34;;;;;;;5.93;3.43;;;8.50;60.60;;;;;;5035849;28;20199;-87
2022/02/11 14:37:01;;;;;;;7.53;3.30;;;8.70;59.60;;;;;;5039659;28;20181;-88
2022/02/11 14:39:27;;;;;;;7.63;3.13;;;8.70;61.90;;;;;;5037729;28;20212;-88
2022/02/11 14:41:55;;;;;;;7.20;3.23;;;8.30;62.20;;;;;;5032536;28;20209;-88
2022/02/11 14:44:26;;;;;;;5.50;3.03;;;8.20;63.50;;;;;;5037969;28;20207;-88
2022/02/11 14:46:56;;;;;;;6.27;2.93;;;7.70;64.80;;;;;;5039328;28;21259;-90
2022/02/11 14:49:22;;;;;;;5.13;2.80;;;7.70;63.00;;;;;;5035948;28;20193;-89
2022/02/11 14:51:56;;;;;;;5.67;3.07;;;7.50;63.60;;;;;;5038284;28;20296;-90
2022/02/11 14:54:22;;;;;;;5.63;3.27;;;7.30;65.30;;;;;;5038296;28;20613;-88
2022/02/11 14:56:50;;;;;;;4.77;3.40;;;7.20;67.70;;;;;;5037069;28;20197;-87
2022/02/11 14:59:16;;;;;;;5.27;3.60;;;7.20;67.20;;;;;;5046039;28;20190;-88
2022/02/11 15:01:44;;;;;;;6.17;4.03;;;7.30;69.30;;;;;;5055718;28;20205;-87
2022/02/11 15:04:10;;;;;;;10.20;3.60;;;7.10;69.50;;;;;;5039825;28;20189;-89
2022/02/11 15:06:37;;;;;;;4.40;3.23;;;7.10;70.40;;;;;;5038094;28;20196;-90
2022/02/11 15:09:04;;;;;;;6.00;3.50;;;7.20;70.10;;;;;;5039304;28;20197;-90
2022/02/11 15:11:31;;;;;;;7.53;2.83;;;7.30;67.40;;;;;;5036848;28;20227;-87
2022/02/11 15:13:57;;;;;;;10.27;3.23;;;7.40;66.30;;;;;;5039326;28;20224;-88
2022/02/11 15:16:22;;;;;;;8.27;2.70;;;7.40;64.70;;;;;;5039618;28;20189;-87
2022/02/11 15:18:48;;;;;;;4.43;2.80;;;7.70;61.90;;;;;;5035151;28;20193;-90
2022/02/11 15:21:15;;;;;;;4.57;2.43;;;8.10;62.50;;;;;;5035066;28;20220;-87
2022/02/11 15:23:41;;;;;;;6.60;2.80;;;8.30;60.30;;;;;;5038844;28;20664;-87
2022/02/11 15:26:09;;;;;;;4.57;2.60;;;8.50;58.30;;;;;;5037922;28;20196;-87
2022/02/11 15:28:37;;;;;;;3.87;2.67;;;8.40;59.70;;;;;;5037823;28;20223;-88
2022/02/11 15:31:04;;;;;;;5.63;3.00;;;8.30;58.80;;;;;;5037597;28;20209;-87
2022/02/11 15:33:31;;;;;;;7.17;2.87;;;8.20;59.00;;;;;;5036879;28;20212;-87
2022/02/11 15:35:57;;;;;;;5.63;2.63;;;8.00;59.70;;;;;;5037119;28;20185;-88
2022/02/11 15:38:23;;;;;;;4.60;2.50;;;7.60;61.00;;;;;;5039305;28;20207;-88
2022/02/11 15:40:49;;;;;;;6.33;2.87;;;7.50;61.20;;;;;;5034612;28;20284;-88
2022/02/11 15:43:16;;;;;;;7.27;2.90;;;7.40;62.90;;;;;;5034028;28;20568;-90
2022/02/11 15:45:42;;;;;;;5.30;3.03;;;7.20;65.00;;;;;;5034475;28;20185;-88
2022/02/11 15:48:09;;;;;;;4.87;2.77;;;7.20;65.30;;;;;;5036026;28;20685;-88
2022/02/11 15:50:35;;;;;;;5.47;3.17;;;7.10;65.60;;;;;;5035615;28;20735;-89
2022/02/11 15:53:00;;;;;;;3.87;2.80;;;6.90;66.70;;;;;;5033161;28;20255;-88
2022/02/11 15:55:26;;;;;;;3.97;2.63;;;6.80;66.50;;;;;;5032934;28;20190;-89
2022/02/11 15:57:52;;;;;;;9.20;3.03;;;6.80;66.50;;;;;;5029740;28;20237;-89
2022/02/11 16:00:18;;;;;;;5.83;3.00;;;6.80;67.40;;;;;;5032934;28;20196;-88
2022/02/11 16:02:44;;;;;;;5.13;3.30;;;6.90;65.30;;;;;;5032168;28;20185;-89
2022/02/11 16:05:11;;;;;;;6.87;3.20;;;6.80;66.40;;;;;;5030660;28;20181;-89
2022/02/11 16:07:37;;;;;;;5.43;2.63;;;6.70;67.40;;;;;;5033198;28;20711;-89
2022/02/11 16:10:07;;;;;;;4.30;3.10;;;6.80;66.90;;;;;;5029686;28;20224;-89
2022/02/11 16:12:34;;;;;;;6.33;2.93;;;6.80;68.20;;;;;;5030582;28;20203;-89
2022/02/11 16:15:02;;;;;;;8.03;3.57;;;6.70;68.40;;;;;;5033563;28;20185;-89
2022/02/11 16:17:30;;;;;;;8.23;3.30;;;6.80;68.50;;;;;;5030187;28;20192;-89
2022/02/11 16:19:56;;;;;;;5.63;3.20;;;6.80;68.80;;;;;;5030948;28;20351;-89
2022/02/11 16:22:26;;;;;;;5.27;3.00;;;6.70;68.90;;;;;;5032052;28;20291;-89
2022/02/11 16:24:52;;;;;;;8.10;3.20;;;6.70;68.30;;;;;;5029727;28;20193;-89
2022/02/11 16:27:18;;;;;;;5.37;2.80;;;6.60;67.50;;;;;;5031735;28;20184;-89
2022/02/11 16:29:45;;;;;;;5.27;3.17;;;6.50;68.80;;;;;;5029168;28;20256;-89
2022/02/11 16:32:11;;;;;;;4.03;3.37;;;6.40;69.70;;;;;;5029175;28;20209;-88
2022/02/11 16:34:39;;;;;;;4.70;3.40;;;6.30;71.40;;;;;;5030846;28;20204;-90
2022/02/11 16:37:08;;;;;;;4.27;3.10;;;6.10;72.70;;;;;;5031937;28;20189;-88
2022/02/11 16:39:33;;;;;;;6.27;3.30;;;6.10;73.20;;;;;;5030680;28;20224;-88
2022/02/11 16:41:59;;;;;;;6.67;3.33;;;6.00;73.60;;;;;;5029815;28;20227;-88
2022/02/11 16:44:25;;;;;;;8.63;3.40;;;6.10;73.60;;;;;;5033397;28;21138;-88
2022/02/11 16:46:51;;;;;;;7.57;3.77;;;6.00;74.00;;;;;;5030739;28;20192;-88